Time;durP1;ratioP1;P1;durP2;ratioP2;P2;SDS_P1;SDS_P2;PMS_P1;PMS_P2;Temp;Humidity;BMP_temperature;BMP_pressure;BME280_temperature;BME280_humidity;BME280_pressure;Samples;Min_cycle;Max_cycle;Signal;HPM_P1;HPM_P2
2023/06/15 00:02:23;;;;;;;5.40;1.20;;;9.30;99.90;;;;;;5070733;28;20500;-65
2023/06/15 00:04:51;;;;;;;6.50;1.70;;;9.50;99.90;;;;;;5087227;28;20028;-66
2023/06/15 00:07:18;;;;;;;3.83;1.55;;;9.70;99.90;;;;;;5081234;28;20025;-65
2023/06/15 00:09:45;;;;;;;3.05;1.35;;;9.80;99.90;;;;;;5089949;28;20020;-65
2023/06/15 00:12:12;;;;;;;6.75;1.52;;;10.00;99.90;;;;;;5079948;28;20028;-65
2023/06/15 00:14:40;;;;;;;4.40;1.30;;;10.10;99.90;;;;;;5091728;28;20430;-65
2023/06/15 00:17:08;;;;;;;3.42;1.20;;;10.40;99.90;;;;;;5093235;28;20052;-67
2023/06/15 00:19:36;;;;;;;6.20;2.10;;;10.60;99.90;;;;;;5092453;28;20036;-65
2023/06/15 00:22:04;;;;;;;5.18;1.10;;;10.90;99.90;;;;;;5091677;28;20024;-65
2023/06/15 00:24:31;;;;;;;3.13;0.98;;;11.10;99.90;;;;;;5089561;28;20097;-65
2023/06/15 00:26:58;;;;;;;7.82;1.38;;;11.30;99.90;;;;;;5092162;28;20047;-65
2023/06/15 00:29:25;;;;;;;3.42;1.00;;;11.50;99.90;;;;;;5090335;28;20042;-65
2023/06/15 00:31:53;;;;;;;6.70;1.10;;;11.70;99.90;;;;;;5091131;28;20032;-65
2023/06/15 00:34:20;;;;;;;4.82;1.20;;;11.90;99.90;;;;;;5092555;28;20038;-66
2023/06/15 00:36:47;;;;;;;2.72;1.10;;;12.10;99.90;;;;;;5090277;28;20031;-66
2023/06/15 00:39:14;;;;;;;3.53;0.90;;;12.30;99.90;;;;;;5089683;28;20434;-65
2023/06/15 00:41:43;;;;;;;5.45;1.30;;;12.50;99.90;;;;;;5091325;28;20101;-65
2023/06/15 00:44:11;;;;;;;2.95;0.95;;;12.70;99.90;;;;;;5073932;28;20059;-65
2023/06/15 00:46:39;;;;;;;4.18;1.48;;;12.90;99.90;;;;;;5084208;28;20038;-66
2023/06/15 00:49:08;;;;;;;4.80;1.15;;;13.00;99.90;;;;;;5089438;28;20614;-65
2023/06/15 00:51:40;;;;;;;4.45;0.90;;;13.20;99.90;;;;;;5090673;28;20036;-64
2023/06/15 00:54:08;;;;;;;2.92;1.00;;;13.30;99.90;;;;;;5087064;28;20027;-65
2023/06/15 00:56:36;;;;;;;6.78;1.63;;;13.40;99.90;;;;;;5087030;28;20024;-66
2023/06/15 00:59:03;;;;;;;3.53;0.90;;;13.60;99.90;;;;;;5089680;28;20020;-69
2023/06/15 01:01:31;;;;;;;5.05;1.05;;;13.70;99.90;;;;;;5089241;28;20078;-71
2023/06/15 01:03:59;;;;;;;2.05;0.70;;;13.90;99.90;;;;;;5086324;28;20031;-68
2023/06/15 01:06:31;;;;;;;2.88;0.60;;;13.90;99.90;;;;;;5085437;28;20485;-69
2023/06/15 01:09:02;;;;;;;1.98;0.90;;;14.00;99.90;;;;;;5083604;28;20020;-69
2023/06/15 01:11:34;;;;;;;4.57;0.80;;;14.10;99.90;;;;;;5091070;28;20072;-68
2023/06/15 01:14:04;;;;;;;3.47;0.73;;;14.20;99.90;;;;;;5091783;28;20101;-68
2023/06/15 01:16:44;;;;;;;2.72;0.77;;;14.30;99.90;;;;;;5090626;28;20106;-69
2023/06/15 01:19:29;;;;;;;1.50;0.63;;;14.40;99.90;;;;;;5084058;28;20099;-69
2023/06/15 01:22:07;;;;;;;2.80;1.00;;;14.60;99.90;;;;;;5090355;28;20058;-69
2023/06/15 01:24:38;;;;;;;1.30;0.57;;;14.70;99.60;;;;;;5082416;28;20050;-69
2023/06/15 01:27:09;;;;;;;2.88;0.70;;;14.70;99.90;;;;;;5087425;28;20035;-68
2023/06/15 01:29:36;;;;;;;1.70;0.52;;;14.80;99.90;;;;;;5087179;28;20052;-69
2023/06/15 01:32:05;;;;;;;3.03;0.65;;;14.90;99.40;;;;;;5089550;28;20028;-69
2023/06/15 01:34:32;;;;;;;1.95;0.63;;;15.00;99.90;;;;;;5089680;28;20025;-69
2023/06/15 01:37:00;;;;;;;1.83;0.70;;;15.10;99.90;;;;;;5089424;28;20020;-68
2023/06/15 01:39:27;;;;;;;1.85;0.75;;;15.20;99.40;;;;;;5086478;28;20056;-69
2023/06/15 01:41:55;;;;;;;4.43;1.00;;;15.20;97.90;;;;;;5087412;28;20066;-68
2023/06/15 01:44:22;;;;;;;4.63;0.90;;;15.30;98.40;;;;;;5091363;28;20036;-69
2023/06/15 01:46:50;;;;;;;5.25;0.95;;;15.40;98.00;;;;;;5090249;28;20066;-69
2023/06/15 01:49:17;;;;;;;3.20;0.85;;;15.40;98.40;;;;;;5091839;28;20109;-70
2023/06/15 01:51:45;;;;;;;2.17;1.10;;;15.50;99.30;;;;;;5091027;28;20157;-69
2023/06/15 01:54:12;;;;;;;3.15;0.90;;;15.60;97.30;;;;;;5091436;28;20384;-70
2023/06/15 01:56:40;;;;;;;4.63;1.00;;;15.60;97.10;;;;;;5091799;28;20478;-68
2023/06/15 01:59:07;;;;;;;4.00;1.10;;;15.70;97.40;;;;;;5089885;28;20142;-69
2023/06/15 02:01:35;;;;;;;3.22;0.93;;;15.80;98.00;;;;;;5091270;28;20040;-68
2023/06/15 02:04:02;;;;;;;4.13;1.00;;;16.00;96.40;;;;;;5091519;28;20024;-68
2023/06/15 02:06:29;;;;;;;4.90;0.68;;;16.10;96.20;;;;;;5088996;28;20032;-66
2023/06/15 02:08:56;;;;;;;4.43;1.23;;;16.20;97.20;;;;;;5072558;28;20017;-68
2023/06/15 02:11:23;;;;;;;2.38;0.85;;;16.20;95.90;;;;;;5085039;28;20020;-68
2023/06/15 02:13:52;;;;;;;4.93;1.00;;;16.20;95.10;;;;;;5089950;28;20069;-68
2023/06/15 02:16:20;;;;;;;2.28;0.60;;;16.20;93.40;;;;;;5091404;28;20024;-69
2023/06/15 02:18:47;;;;;;;5.22;0.63;;;16.30;90.30;;;;;;5087977;28;20036;-69
2023/06/15 02:21:15;;;;;;;0.80;0.45;;;16.30;88.10;;;;;;5083161;28;20820;-69
2023/06/15 02:23:42;;;;;;;2.55;0.40;;;16.30;87.40;;;;;;5090409;28;20035;-69
2023/06/15 02:26:10;;;;;;;8.85;0.73;;;16.40;85.80;;;;;;5089476;28;20054;-69
2023/06/15 02:28:37;;;;;;;2.17;0.30;;;16.50;87.10;;;;;;5088078;28;20095;-68
2023/06/15 02:31:04;;;;;;;1.80;0.32;;;16.50;84.30;;;;;;5089262;28;20020;-68
2023/06/15 02:33:32;;;;;;;1.75;0.40;;;16.60;84.30;;;;;;5088757;28;20016;-69
2023/06/15 02:35:59;;;;;;;1.52;0.80;;;16.60;84.30;;;;;;5088590;28;20466;-68
2023/06/15 02:38:26;;;;;;;3.97;0.73;;;16.70;81.90;;;;;;5089612;28;20099;-68
2023/06/15 02:40:54;;;;;;;2.05;0.40;;;16.70;83.10;;;;;;5086327;28;20030;-69
2023/06/15 02:43:21;;;;;;;5.05;0.70;;;16.70;81.90;;;;;;5089382;28;20024;-69
2023/06/15 02:45:48;;;;;;;1.20;0.40;;;16.80;80.00;;;;;;5085614;28;20479;-68
2023/06/15 02:48:15;;;;;;;3.60;0.30;;;16.80;79.60;;;;;;5088006;28;20020;-68
2023/06/15 02:50:43;;;;;;;1.45;0.40;;;16.80;82.80;;;;;;5089831;28;20036;-68
2023/06/15 02:53:12;;;;;;;2.85;0.65;;;16.80;79.40;;;;;;5090570;28;20060;-68
2023/06/15 02:55:41;;;;;;;2.35;1.17;;;16.80;80.50;;;;;;5078518;28;20031;-68
2023/06/15 02:58:08;;;;;;;5.20;1.85;;;16.80;80.90;;;;;;5089266;28;20031;-68
2023/06/15 03:00:36;;;;;;;2.38;0.90;;;16.90;79.50;;;;;;5087109;28;20043;-69
2023/06/15 03:03:03;;;;;;;3.72;1.23;;;16.90;78.50;;;;;;5089225;28;20093;-68
2023/06/15 03:05:32;;;;;;;3.88;0.90;;;17.00;79.00;;;;;;5089193;28;20489;-68
2023/06/15 03:08:03;;;;;;;1.85;0.70;;;17.10;77.50;;;;;;5086255;28;20094;-68
2023/06/15 03:10:30;;;;;;;1.50;0.77;;;17.10;80.50;;;;;;5089525;28;20643;-68
2023/06/15 03:12:57;;;;;;;2.42;0.40;;;17.20;78.20;;;;;;5082914;28;20021;-69
2023/06/15 03:15:25;;;;;;;1.15;0.70;;;17.20;77.40;;;;;;5088681;28;20054;-69
2023/06/15 03:17:52;;;;;;;4.20;0.75;;;17.20;78.70;;;;;;5087456;28;20020;-68
2023/06/15 03:20:21;;;;;;;1.80;0.32;;;17.20;77.50;;;;;;5089176;28;20023;-69
2023/06/15 03:22:49;;;;;;;2.80;0.50;;;17.20;78.40;;;;;;5087519;28;20027;-69
2023/06/15 03:25:16;;;;;;;0.88;0.28;;;17.20;77.90;;;;;;5087679;28;20085;-69
2023/06/15 03:27:43;;;;;;;5.80;0.68;;;17.30;74.90;;;;;;5086644;28;20494;-69
2023/06/15 03:30:11;;;;;;;1.60;0.63;;;17.20;74.70;;;;;;5087453;28;20012;-70
2023/06/15 03:32:38;;;;;;;1.52;0.70;;;17.20;75.40;;;;;;5088090;28;20446;-69
2023/06/15 03:35:07;;;;;;;5.72;0.52;;;17.20;75.00;;;;;;5085731;28;20050;-69
2023/06/15 03:37:34;;;;;;;5.68;0.52;;;17.10;74.80;;;;;;5087756;28;20028;-70
2023/06/15 03:40:04;;;;;;;3.28;0.50;;;17.10;75.00;;;;;;5087136;28;20081;-68
2023/06/15 03:42:33;;;;;;;3.55;0.50;;;17.20;77.10;;;;;;5085534;28;20032;-68
2023/06/15 03:45:00;;;;;;;3.00;0.40;;;17.20;74.40;;;;;;5080048;28;20092;-70
2023/06/15 03:47:39;;;;;;;1.23;0.40;;;17.20;76.10;;;;;;5085016;28;20067;-70
2023/06/15 03:50:11;;;;;;;0.60;0.30;;;17.20;76.40;;;;;;5087841;28;20082;-71
2023/06/15 03:52:38;;;;;;;0.57;0.30;;;17.30;76.30;;;;;;5088677;28;20035;-69
2023/06/15 03:55:06;;;;;;;2.47;0.90;;;17.30;75.00;;;;;;5087463;28;20023;-71
2023/06/15 03:57:34;;;;;;;5.70;1.63;;;17.30;75.30;;;;;;5088045;28;20480;-70
2023/06/15 04:00:02;;;;;;;5.13;0.40;;;17.30;74.20;;;;;;5085822;28;20480;-68
2023/06/15 04:02:30;;;;;;;1.23;0.43;;;17.30;75.50;;;;;;5085743;28;20496;-67
2023/06/15 04:04:57;;;;;;;1.75;0.50;;;17.40;75.90;;;;;;5088688;28;20031;-69
2023/06/15 04:07:25;;;;;;;1.38;0.32;;;17.40;75.10;;;;;;5084797;28;20028;-68
2023/06/15 04:09:52;;;;;;;0.85;0.30;;;17.40;73.20;;;;;;5086865;28;20107;-68
2023/06/15 04:12:20;;;;;;;2.88;0.55;;;17.40;73.50;;;;;;5085640;28;20040;-68
2023/06/15 04:14:47;;;;;;;0.57;0.55;;;17.40;74.20;;;;;;5087227;28;20048;-68
2023/06/15 04:17:15;;;;;;;1.60;0.40;;;17.30;73.80;;;;;;5083621;28;20374;-70
2023/06/15 04:19:42;;;;;;;1.73;0.40;;;17.30;74.00;;;;;;5085608;28;20074;-68
2023/06/15 04:22:09;;;;;;;0.60;0.30;;;17.30;74.00;;;;;;5086362;28;20527;-68
2023/06/15 04:24:37;;;;;;;2.33;0.55;;;17.30;73.00;;;;;;5086996;28;20027;-67
2023/06/15 04:27:05;;;;;;;3.88;1.02;;;17.30;73.90;;;;;;5087607;28;20123;-68
2023/06/15 04:29:32;;;;;;;5.90;2.03;;;17.30;75.10;;;;;;5085214;28;20105;-74
2023/06/15 04:31:59;;;;;;;3.30;1.20;;;17.30;75.90;;;;;;5085305;28;20503;-71
2023/06/15 04:34:27;;;;;;;1.73;0.52;;;17.30;76.00;;;;;;5086045;28;20111;-73
2023/06/15 04:36:54;;;;;;;2.17;0.40;;;17.30;76.30;;;;;;5087247;28;20103;-73
2023/06/15 04:39:25;;;;;;;3.15;0.40;;;17.30;74.30;;;;;;5082503;28;20103;-73
2023/06/15 04:41:52;;;;;;;3.70;0.40;;;17.20;74.20;;;;;;5084629;28;20035;-71
2023/06/15 04:44:20;;;;;;;2.05;0.35;;;17.20;74.00;;;;;;5069770;28;20115;-73
2023/06/15 04:46:48;;;;;;;1.15;0.47;;;17.20;74.10;;;;;;5076794;28;20119;-74
2023/06/15 04:49:15;;;;;;;3.33;0.50;;;17.10;75.90;;;;;;5084626;28;20039;-73
2023/06/15 04:51:44;;;;;;;0.70;0.30;;;17.10;75.10;;;;;;5084188;28;20031;-73
2023/06/15 04:54:11;;;;;;;0.73;0.65;;;17.10;75.40;;;;;;5086609;28;20024;-74
2023/06/15 04:56:38;;;;;;;2.13;0.80;;;17.00;75.40;;;;;;5089540;28;20059;-72
2023/06/15 04:59:05;;;;;;;1.88;0.30;;;17.00;74.60;;;;;;5089324;28;20032;-74
2023/06/15 05:01:34;;;;;;;1.25;0.30;;;17.00;74.40;;;;;;5084746;28;20039;-74
2023/06/15 05:04:01;;;;;;;3.58;0.40;;;16.90;75.60;;;;;;5082167;28;20605;-73
2023/06/15 05:06:28;;;;;;;2.50;0.30;;;16.90;76.60;;;;;;5086287;28;20050;-73
2023/06/15 05:08:55;;;;;;;1.80;0.60;;;16.90;76.40;;;;;;5087680;28;20075;-73
2023/06/15 05:11:23;;;;;;;0.60;0.30;;;16.90;76.00;;;;;;5091594;28;20094;-73
2023/06/15 05:13:50;;;;;;;1.33;0.40;;;16.90;75.40;;;;;;5092489;28;20022;-71
2023/06/15 05:16:18;;;;;;;1.02;0.55;;;16.90;76.20;;;;;;5092579;28;20016;-73
2023/06/15 05:18:46;;;;;;;2.20;0.52;;;16.80;76.80;;;;;;5091438;28;20031;-73
2023/06/15 05:21:13;;;;;;;0.70;0.38;;;16.70;77.20;;;;;;5092184;28;20020;-72
2023/06/15 05:23:41;;;;;;;2.78;0.95;;;16.70;77.80;;;;;;5091327;28;20024;-73
2023/06/15 05:26:08;;;;;;;1.75;0.50;;;16.60;77.80;;;;;;5089255;28;20032;-72
2023/06/15 05:28:35;;;;;;;4.82;0.73;;;16.70;78.00;;;;;;5088950;28;20027;-72
2023/06/15 05:31:03;;;;;;;1.02;0.25;;;16.60;78.20;;;;;;5090880;28;20530;-73
2023/06/15 05:33:30;;;;;;;5.40;0.47;;;16.60;78.00;;;;;;5089891;28;20027;-72
2023/06/15 05:35:57;;;;;;;25.77;1.15;;;16.60;78.20;;;;;;5090049;28;20027;-72
2023/06/15 05:38:25;;;;;;;1.38;0.30;;;16.50;77.30;;;;;;5087449;28;20016;-71
2023/06/15 05:40:53;;;;;;;1.00;0.40;;;16.50;77.70;;;;;;5084440;28;20036;-73
2023/06/15 05:43:20;;;;;;;4.20;0.40;;;16.40;78.30;;;;;;5089451;28;20035;-73
2023/06/15 05:45:50;;;;;;;1.17;0.32;;;16.40;78.00;;;;;;5085177;28;20035;-73
2023/06/15 05:48:19;;;;;;;0.45;0.30;;;16.40;79.90;;;;;;5090247;28;20170;-73
2023/06/15 05:50:46;;;;;;;2.95;0.40;;;16.30;80.30;;;;;;5089919;28;20081;-74
2023/06/15 05:53:17;;;;;;;0.52;0.30;;;16.20;80.70;;;;;;5089063;28;20047;-73
2023/06/15 05:55:44;;;;;;;5.20;0.43;;;16.20;80.90;;;;;;5090355;28;20035;-73
2023/06/15 05:58:11;;;;;;;2.67;0.35;;;16.10;82.90;;;;;;5091667;28;20012;-73
2023/06/15 06:00:38;;;;;;;1.15;0.25;;;16.00;83.60;;;;;;5088496;28;20027;-72
2023/06/15 06:03:06;;;;;;;0.95;0.40;;;15.90;84.30;;;;;;5089989;28;20051;-74
2023/06/15 06:05:33;;;;;;;1.60;0.30;;;15.80;85.20;;;;;;5085458;28;20032;-72
2023/06/15 06:08:00;;;;;;;1.17;0.40;;;15.80;85.20;;;;;;5085816;28;20020;-71
2023/06/15 06:10:27;;;;;;;3.13;1.15;;;15.80;84.80;;;;;;5081087;28;20101;-70
2023/06/15 06:12:55;;;;;;;2.92;0.30;;;15.70;85.20;;;;;;5078951;28;20025;-71
2023/06/15 06:15:23;;;;;;;0.52;0.30;;;15.70;86.10;;;;;;5089313;28;20032;-70
2023/06/15 06:17:50;;;;;;;1.33;0.52;;;15.60;85.60;;;;;;5090105;28;20492;-70
2023/06/15 06:20:17;;;;;;;10.18;0.95;;;15.50;86.90;;;;;;5087831;28;20020;-70
2023/06/15 06:22:44;;;;;;;2.15;0.90;;;15.40;87.10;;;;;;5090684;28;20248;-70
2023/06/15 06:25:12;;;;;;;4.85;1.17;;;15.30;89.40;;;;;;5090518;28;20027;-70
2023/06/15 06:27:39;;;;;;;4.93;1.33;;;15.20;90.40;;;;;;5091233;28;20016;-70
2023/06/15 06:30:07;;;;;;;2.03;0.73;;;15.10;90.70;;;;;;5090894;28;20493;-70
2023/06/15 06:32:34;;;;;;;2.65;0.40;;;15.10;91.20;;;;;;5090368;28;20024;-70
2023/06/15 06:35:01;;;;;;;3.17;0.30;;;15.00;92.40;;;;;;5090805;28;20023;-71
2023/06/15 06:37:29;;;;;;;2.13;0.50;;;15.00;93.10;;;;;;5080635;28;20025;-68
2023/06/15 06:39:56;;;;;;;2.35;0.68;;;14.80;94.40;;;;;;5089476;28;20024;-70
2023/06/15 06:42:24;;;;;;;1.45;0.63;;;14.70;95.50;;;;;;5086173;28;20028;-71
2023/06/15 06:44:52;;;;;;;5.65;0.80;;;14.50;95.70;;;;;;5089358;28;20059;-71
2023/06/15 06:47:19;;;;;;;8.32;0.63;;;14.40;97.60;;;;;;5085004;28;20031;-69
2023/06/15 06:49:47;;;;;;;3.85;0.80;;;14.30;98.60;;;;;;5083260;28;20100;-71
2023/06/15 06:52:14;;;;;;;4.07;0.52;;;14.10;99.10;;;;;;5086958;28;20031;-71
2023/06/15 06:54:41;;;;;;;1.60;0.65;;;14.10;99.40;;;;;;5073599;28;20056;-65
2023/06/15 06:57:12;;;;;;;3.42;0.65;;;13.90;99.90;;;;;;5083307;28;20388;-65
2023/06/15 06:59:39;;;;;;;4.60;0.70;;;13.80;99.90;;;;;;5087505;28;20426;-66
2023/06/15 07:02:07;;;;;;;3.67;0.40;;;13.60;99.90;;;;;;5088391;28;20036;-65
2023/06/15 07:04:34;;;;;;;5.55;0.80;;;13.50;99.90;;;;;;5086426;28;20504;-65
2023/06/15 07:07:01;;;;;;;7.13;0.90;;;13.40;99.90;;;;;;5088734;28;20036;-64
2023/06/15 07:09:32;;;;;;;6.20;1.48;;;13.30;99.90;;;;;;5088742;28;20028;-64
2023/06/15 07:12:00;;;;;;;1.23;0.52;;;13.30;99.90;;;;;;5085738;28;20054;-64
2023/06/15 07:14:27;;;;;;;5.20;0.65;;;13.30;99.90;;;;;;5089538;28;20024;-63
2023/06/15 07:16:54;;;;;;;1.77;0.60;;;13.20;99.90;;;;;;5086585;28;20028;-64
2023/06/15 07:19:22;;;;;;;5.68;0.70;;;13.20;99.90;;;;;;5086665;28;20114;-65
2023/06/15 07:21:49;;;;;;;3.50;0.55;;;13.20;99.90;;;;;;5090014;28;20020;-64
2023/06/15 07:24:16;;;;;;;4.72;0.80;;;13.00;99.90;;;;;;5087774;28;20016;-63
2023/06/15 07:26:43;;;;;;;11.40;0.77;;;12.90;99.90;;;;;;5083292;28;20097;-63
2023/06/15 07:29:11;;;;;;;1.60;0.68;;;12.90;99.90;;;;;;5090348;28;20032;-62
2023/06/15 07:31:38;;;;;;;5.45;1.00;;;12.80;99.90;;;;;;5084082;28;20032;-62
2023/06/15 07:34:05;;;;;;;4.97;0.63;;;12.80;99.90;;;;;;5089012;28;20026;-63
2023/06/15 07:36:33;;;;;;;2.28;0.60;;;12.80;99.90;;;;;;5088225;28;20884;-62
2023/06/15 07:39:00;;;;;;;7.78;0.55;;;12.80;99.90;;;;;;5086040;28;20372;-62
2023/06/15 07:41:27;;;;;;;4.57;0.70;;;12.90;99.90;;;;;;5077175;28;20528;-62
2023/06/15 07:43:54;;;;;;;9.00;0.90;;;12.80;99.90;;;;;;5082450;28;20024;-63
2023/06/15 07:46:22;;;;;;;11.75;1.23;;;12.80;99.90;;;;;;5085948;28;20036;-62
2023/06/15 07:48:49;;;;;;;11.68;2.25;;;12.80;99.90;;;;;;5086605;28;20024;-63
2023/06/15 07:51:16;;;;;;;11.07;1.15;;;12.80;99.90;;;;;;5082837;28;20095;-62
2023/06/15 07:53:43;;;;;;;11.35;1.23;;;12.80;99.90;;;;;;5082000;28;20399;-62
2023/06/15 07:56:10;;;;;;;13.57;2.05;;;12.70;99.90;;;;;;5083810;28;20020;-62
2023/06/15 07:58:38;;;;;;;11.07;1.83;;;12.60;99.90;;;;;;5089636;28;20035;-63
2023/06/15 08:01:06;;;;;;;5.60;0.93;;;12.40;99.90;;;;;;5089385;28;20028;-63
2023/06/15 08:03:33;;;;;;;3.90;1.35;;;12.20;99.90;;;;;;5087367;28;20048;-63
2023/06/15 08:06:01;;;;;;;1.20;0.70;;;12.10;99.90;;;;;;5084962;28;20111;-64
2023/06/15 08:08:32;;;;;;;2.20;0.82;;;12.00;99.90;;;;;;5083505;28;20056;-64
2023/06/15 08:11:00;;;;;;;5.95;0.90;;;11.90;99.90;;;;;;5081310;28;20052;-62
2023/06/15 08:13:27;;;;;;;6.22;0.60;;;11.90;99.90;;;;;;5084584;28;20028;-62
2023/06/15 08:15:54;;;;;;;2.38;0.65;;;11.70;99.90;;;;;;5087205;28;20028;-63
2023/06/15 08:18:26;;;;;;;2.78;0.80;;;11.60;99.90;;;;;;5086885;28;20439;-65
2023/06/15 08:20:54;;;;;;;3.35;1.08;;;11.50;99.90;;;;;;5086495;28;20024;-63
2023/06/15 08:23:22;;;;;;;10.90;4.00;;;11.40;99.90;;;;;;5085038;28;20020;-61
2023/06/15 08:25:52;;;;;;;21.40;8.07;;;11.20;99.90;;;;;;5086542;28;20710;-61
2023/06/15 08:28:22;;;;;;;17.80;8.52;;;11.10;99.90;;;;;;5088984;28;20033;-63
2023/06/15 08:30:49;;;;;;;4.60;2.70;;;11.00;99.90;;;;;;5086382;28;20416;-63
2023/06/15 08:33:18;;;;;;;6.80;1.55;;;11.00;99.90;;;;;;5089472;28;20088;-63
2023/06/15 08:35:46;;;;;;;3.83;2.33;;;11.00;99.90;;;;;;5087020;28;20028;-62
2023/06/15 08:38:13;;;;;;;5.35;2.42;;;11.00;99.90;;;;;;5088384;28;20058;-62
2023/06/15 08:40:44;;;;;;;4.88;1.70;;;10.90;99.90;;;;;;5082017;28;20040;-63
2023/06/15 08:43:15;;;;;;;6.03;4.05;;;10.80;99.90;;;;;;5082219;28;20032;-63
2023/06/15 08:45:48;;;;;;;5.78;3.00;;;10.70;99.90;;;;;;5085636;28;20039;-62
2023/06/15 08:48:18;;;;;;;8.93;3.90;;;10.70;99.90;;;;;;5074326;28;20063;-62
2023/06/15 08:50:46;;;;;;;5.47;3.28;;;10.70;99.90;;;;;;5087265;28;20483;-61
2023/06/15 08:53:14;;;;;;;8.10;3.85;;;10.60;99.90;;;;;;5089961;28;20484;-61
2023/06/15 08:55:42;;;;;;;7.03;2.60;;;10.50;99.90;;;;;;5092524;28;20073;-62
2023/06/15 08:58:13;;;;;;;4.47;2.92;;;10.40;99.90;;;;;;5091667;28;20054;-61
2023/06/15 09:00:41;;;;;;;5.03;2.90;;;10.30;99.90;;;;;;5091650;28;20500;-62
2023/06/15 09:03:09;;;;;;;5.65;3.30;;;10.20;99.90;;;;;;5088788;28;20068;-62
2023/06/15 09:05:37;;;;;;;5.60;2.78;;;10.20;99.90;;;;;;5078438;28;20029;-61
2023/06/15 09:08:05;;;;;;;3.60;2.30;;;10.10;99.90;;;;;;5090045;28;20127;-62
2023/06/15 09:10:41;;;;;;;2.38;1.60;;;10.00;99.90;;;;;;5097925;28;20032;-63
2023/06/15 09:13:24;;;;;;;2.55;1.17;;;9.90;99.90;;;;;;5091629;28;20027;-63
2023/06/15 09:16:02;;;;;;;6.03;1.60;;;9.90;99.90;;;;;;5088998;28;20032;-63
2023/06/15 09:18:41;;;;;;;5.25;2.60;;;9.80;99.90;;;;;;5092223;28;20476;-67
2023/06/15 09:21:13;;;;;;;2.65;1.27;;;9.80;99.90;;;;;;5091006;28;20035;-66
2023/06/15 09:23:44;;;;;;;3.30;1.90;;;9.70;99.90;;;;;;5080421;28;20019;-65
2023/06/15 09:26:25;;;;;;;5.43;1.45;;;9.70;99.90;;;;;;5075922;28;20016;-66
2023/06/15 09:28:57;;;;;;;2.13;1.27;;;9.60;99.90;;;;;;5092247;28;20032;-63
2023/06/15 09:31:36;;;;;;;3.58;1.63;;;9.60;99.90;;;;;;5087224;28;20517;-67
2023/06/15 09:34:04;;;;;;;4.05;2.05;;;9.50;99.90;;;;;;5089223;28;20051;-67
2023/06/15 09:36:39;;;;;;;2.25;1.40;;;9.50;99.90;;;;;;5088909;28;20095;-67
2023/06/15 09:39:09;;;;;;;2.97;1.77;;;9.40;99.90;;;;;;5087308;28;20063;-64
2023/06/15 09:41:50;;;;;;;3.15;1.35;;;9.40;99.90;;;;;;5090016;28;20028;-64
2023/06/15 09:44:21;;;;;;;1.48;1.00;;;9.40;99.90;;;;;;5081979;28;20460;-66
2023/06/15 09:46:57;;;;;;;2.13;1.05;;;9.30;99.90;;;;;;5089515;28;20031;-64
2023/06/15 09:49:26;;;;;;;4.00;1.30;;;9.20;99.90;;;;;;5082497;28;20502;-65
2023/06/15 09:51:54;;;;;;;2.15;1.13;;;9.20;99.90;;;;;;5082544;28;20036;-66
2023/06/15 09:54:24;;;;;;;4.97;1.80;;;9.10;99.90;;;;;;5084822;28;20036;-66
2023/06/15 09:56:58;;;;;;;4.20;1.90;;;9.10;99.90;;;;;;5093407;28;20020;-66
2023/06/15 09:59:25;;;;;;;4.15;1.75;;;9.10;99.90;;;;;;5086801;28;20032;-65
2023/06/15 10:01:56;;;;;;;3.13;1.67;;;9.00;99.90;;;;;;5075830;28;20040;-67
2023/06/15 10:04:32;;;;;;;3.55;2.10;;;8.90;99.90;;;;;;5079581;28;20024;-66
2023/06/15 10:07:03;;;;;;;3.72;1.67;;;8.90;99.90;;;;;;5085647;28;20036;-65
2023/06/15 10:09:40;;;;;;;3.42;1.88;;;8.80;99.90;;;;;;5085888;28;20028;-64
2023/06/15 10:12:15;;;;;;;7.38;2.22;;;8.70;99.90;;;;;;5081451;28;20036;-65
2023/06/15 10:14:53;;;;;;;6.15;2.63;;;8.60;99.90;;;;;;5082970;28;20053;-66
2023/06/15 10:17:32;;;;;;;7.53;2.15;;;8.50;99.90;;;;;;5083830;28;20034;-66
2023/06/15 10:20:09;;;;;;;9.18;2.83;;;8.30;99.90;;;;;;5085390;28;20028;-65
2023/06/15 10:22:50;;;;;;;7.63;3.30;;;8.20;99.90;;;;;;5083817;28;20500;-66
2023/06/15 10:25:21;;;;;;;5.10;3.10;;;8.10;99.90;;;;;;5086732;28;20035;-66
2023/06/15 10:27:49;;;;;;;4.78;2.30;;;8.00;99.90;;;;;;5086908;28;20028;-67
2023/06/15 10:30:34;;;;;;;12.98;6.47;;;7.90;99.90;;;;;;5087665;28;20828;-67
2023/06/15 10:33:20;;;;;;;10.88;4.65;;;7.80;99.90;;;;;;5078937;28;20035;-66
2023/06/15 10:35:58;;;;;;;12.13;4.60;;;7.70;99.90;;;;;;5085499;28;20055;-66
2023/06/15 10:38:39;;;;;;;9.73;5.03;;;7.60;99.90;;;;;;5085760;28;20027;-67
2023/06/15 10:41:07;;;;;;;10.57;5.00;;;7.50;99.90;;;;;;5086627;28;20024;-65
2023/06/15 10:43:34;;;;;;;9.13;4.25;;;7.50;99.90;;;;;;5084918;28;20032;-65
2023/06/15 10:46:02;;;;;;;7.07;3.65;;;7.40;99.90;;;;;;5088817;28;20028;-65
2023/06/15 10:48:31;;;;;;;6.10;2.80;;;7.30;99.90;;;;;;5085753;28;20073;-64
2023/06/15 10:51:06;;;;;;;6.43;2.65;;;7.30;99.90;;;;;;5084904;28;20025;-67
2023/06/15 10:53:41;;;;;;;5.65;2.78;;;7.20;99.90;;;;;;5086242;28;20020;-66
2023/06/15 10:56:15;;;;;;;;;;;7.20;99.90;;;;;;5086821;28;20024;-65
2023/06/15 10:58:55;;;;;;;7.40;3.65;;;7.20;99.90;;;;;;5086347;28;20687;-65
2023/06/15 11:01:29;;;;;;;7.22;2.85;;;7.10;99.90;;;;;;5087788;28;20027;-67
2023/06/15 11:03:58;;;;;;;7.35;3.55;;;7.10;99.90;;;;;;5081503;28;20036;-65
2023/06/15 11:06:37;;;;;;;9.88;3.67;;;7.00;99.90;;;;;;5084511;28;20044;-64
2023/06/15 11:09:07;;;;;;;7.43;3.38;;;7.00;99.90;;;;;;5084991;28;20032;-66
2023/06/15 11:11:38;;;;;;;10.13;4.82;;;7.00;99.90;;;;;;5083427;28;20035;-66
2023/06/15 11:14:09;;;;;;;9.98;4.43;;;6.90;99.90;;;;;;5085636;28;20024;-67
2023/06/15 11:16:37;;;;;;;9.60;5.60;;;6.90;99.90;;;;;;5086583;28;20558;-66
2023/06/15 11:19:13;;;;;;;8.10;4.38;;;6.90;99.90;;;;;;5079729;28;20379;-66
2023/06/15 11:22:01;;;;;;;5.65;2.78;;;6.90;99.90;;;;;;5083450;28;20084;-66
2023/06/15 11:24:37;;;;;;;5.50;3.15;;;6.80;99.90;;;;;;5077291;28;20062;-66
2023/06/15 11:27:09;;;;;;;6.45;3.10;;;6.80;99.90;;;;;;5086820;28;20040;-66
2023/06/15 11:29:41;;;;;;;9.60;3.03;;;6.80;99.90;;;;;;5084399;28;20445;-65
2023/06/15 11:32:10;;;;;;;10.38;3.65;;;6.70;99.90;;;;;;5086431;28;20401;-65
2023/06/15 11:34:38;;;;;;;6.90;3.70;;;6.70;99.90;;;;;;5084648;28;20021;-66
2023/06/15 11:37:12;;;;;;;7.75;3.58;;;6.70;99.90;;;;;;5085432;28;20043;-65
2023/06/15 11:39:44;;;;;;;7.80;3.83;;;6.80;99.90;;;;;;5085700;28;20473;-65
2023/06/15 11:42:12;;;;;;;14.88;5.70;;;6.80;99.90;;;;;;5084245;28;20028;-66
2023/06/15 11:44:42;;;;;;;9.38;5.07;;;6.90;99.90;;;;;;5083483;28;20016;-64
2023/06/15 11:47:11;;;;;;;10.10;3.30;;;7.10;99.90;;;;;;5087101;28;20024;-65
2023/06/15 11:49:41;;;;;;;7.68;4.18;;;7.30;99.90;;;;;;5086413;28;20500;-67
2023/06/15 11:52:09;;;;;;;10.43;5.47;;;7.50;99.90;;;;;;5088402;28;20024;-68
2023/06/15 11:54:37;;;;;;;10.77;5.65;;;7.60;99.90;;;;;;5086558;28;20030;-66
2023/06/15 11:57:05;;;;;;;9.20;4.10;;;7.60;99.90;;;;;;5083767;28;20539;-66
2023/06/15 11:59:38;;;;;;;13.00;4.25;;;7.70;99.90;;;;;;5085515;28;20496;-66
2023/06/15 12:02:06;;;;;;;8.10;3.95;;;7.70;99.90;;;;;;5089180;28;20097;-67
2023/06/15 12:04:34;;;;;;;13.93;4.05;;;7.70;99.90;;;;;;5089477;28;20035;-66
2023/06/15 12:07:04;;;;;;;10.18;3.88;;;7.50;99.90;;;;;;5091290;28;20032;-65
2023/06/15 12:09:39;;;;;;;7.65;3.53;;;7.30;99.90;;;;;;5085894;28;20416;-67
2023/06/15 12:12:10;;;;;;;6.93;2.92;;;7.10;99.90;;;;;;5090703;28;20042;-65
2023/06/15 12:14:43;;;;;;;9.82;2.83;;;6.90;99.90;;;;;;5088973;28;20392;-66
2023/06/15 12:17:10;;;;;;;6.45;2.95;;;6.80;99.90;;;;;;5089190;28;20086;-66
2023/06/15 12:19:37;;;;;;;5.88;3.08;;;6.60;99.90;;;;;;5089184;28;20130;-65
2023/06/15 12:22:07;;;;;;;6.47;3.50;;;6.50;99.90;;;;;;5090642;28;20079;-67
2023/06/15 12:24:40;;;;;;;8.00;3.63;;;6.40;99.90;;;;;;5090495;28;20028;-65
2023/06/15 12:27:17;;;;;;;7.20;3.57;;;6.30;99.90;;;;;;5083851;28;20909;-65
2023/06/15 12:29:44;;;;;;;7.78;3.55;;;6.20;99.90;;;;;;5089614;28;20077;-66
2023/06/15 12:32:21;;;;;;;6.38;3.30;;;6.10;99.90;;;;;;5090209;28;20036;-66
2023/06/15 12:34:54;;;;;;;4.72;3.20;;;6.10;99.90;;;;;;5085269;28;20028;-65
2023/06/15 12:37:22;;;;;;;7.82;3.20;;;6.00;99.90;;;;;;5086092;28;20036;-65
2023/06/15 12:39:50;;;;;;;4.78;2.40;;;5.90;99.90;;;;;;5086543;28;20099;-66
2023/06/15 12:42:20;;;;;;;8.10;2.80;;;5.90;99.90;;;;;;5089091;28;20028;-65
2023/06/15 12:44:48;;;;;;;8.27;3.10;;;5.80;99.90;;;;;;5088452;28;20024;-66
2023/06/15 12:47:15;;;;;;;7.00;3.08;;;5.80;99.90;;;;;;5078584;28;20041;-65
2023/06/15 12:49:42;;;;;;;6.40;3.10;;;5.70;99.90;;;;;;5087591;28;20507;-66
2023/06/15 12:52:13;;;;;;;10.55;4.28;;;5.70;99.90;;;;;;5089599;28;20035;-65
2023/06/15 12:54:40;;;;;;;6.55;3.58;;;5.70;99.90;;;;;;5089319;28;20020;-65
2023/06/15 12:57:08;;;;;;;7.78;3.30;;;5.70;99.90;;;;;;5090521;28;20042;-65
2023/06/15 12:59:35;;;;;;;5.65;2.83;;;5.70;99.90;;;;;;5087179;28;20032;-66
2023/06/15 13:02:03;;;;;;;6.63;3.10;;;5.80;99.90;;;;;;5091242;28;20032;-66